HOURLY OBS INDEX

030

Upper Carpentaria

GEORGETOWN AIRPORT

Site: 030124
Alt: 301.8m
270km ESE of NORMANTON


  Time     Wind        Temp  DP   Baro     Rain since   Rain past  Vis(m), Cloud(base in m), Weather
  local        km/h                         9am  last   hr   10m    
Thu 09:00  SSE  2/  7  17.7  6.3  1020.4    0.0   0.0   0.0   0.0   10000 
Thu 09:30  ESE  7/ 11  19.3  6.4  1020.4    0.0   0.0   0.0   0.0   10000 
Thu 10:00   SE 11/ 17  20.8  6.7  1020.4    0.0   0.0   0.0   0.0   10000 
Thu 10:30  ENE 13/ 17  21.9  6.2  1020.1    0.0   0.0   0.0   0.0   10000 
Thu 11:00  ENE 11/ 17  23.4  6.7  1019.8    0.0   0.0   0.0   0.0   10000 
Thu 11:30  ENE  9/ 17  23.9  5.8  1019.5    0.0   0.0   0.0   0.0   10000 
Thu 12:00    E 11/ 20  25.0  6.2  1019.1    0.0   0.0   0.0   0.0   10000 
Thu 12:30   NE  9/ 17  25.0  4.7  1018.6    0.0   0.0   0.0   0.0   10000 
Thu 13:00  ENE 11/ 24  26.0  4.5  1018.1    0.0   0.0   0.0   0.0   10000 
Thu 13:30  ESE 11/ 20  25.9  2.6  1017.5    0.0   0.0   0.0   0.0   10000 
Thu 14:00   NE  7/ 13  25.9  2.6  1017.2    0.0   0.0   0.0   0.0   10000 

HUGHENDEN AIRPORT

Site: 030022
Alt: 316.4m
5km ENE of HUGHENDEN


  Time     Wind        Temp  DP   Baro     Rain since   Rain past  Vis(m), Cloud(base in m), Weather
  local        km/h                         9am  last   hr   10m    
Thu 09:00  ENE 20/ 30  15.6  1.4  1021.5    0.0   0.0   0.0   0.0   10000 
Thu 09:30   NE 20/ 30  16.9  1.8  1021.4    0.0   0.0   0.0   0.0   10000 
Thu 10:00   NE 26/ 35  18.4  1.9  1021.3    0.0   0.0   0.0   0.0   10000 
Thu 10:30  ENE 26/ 35  20.0  2.4  1020.9    0.0   0.0   0.0   0.0   10000 
Thu 11:00  ENE 22/ 28  20.5  2.3  1020.6    0.0   0.0   0.0   0.0   10000 
Thu 11:30  ENE 24/ 32  22.1  2.8  1020.2    0.0   0.0   0.0   0.0   10000 
Thu 12:00  ENE 19/ 28  22.9  0.1  1019.7    0.0   0.0   0.0   0.0   10000 
Thu 12:30  ENE 20/ 26  23.6 -1.3  1019.2    0.0   0.0   0.0   0.0   10000 
Thu 13:00   NE 19/ 24  24.1 -0.9  1018.7    0.0   0.0   0.0   0.0   10000 
Thu 13:30  ENE 17/ 26  24.6 -1.3  1018.4    0.0   0.0   0.0   0.0   10000 
Thu 14:00   NE 13/ 22  24.8 -1.9  1018.0    0.0   0.0   0.0   0.0   10000 

RICHMOND AIRPORT

Site: 030161
Alt: 206.3m
112km W of HUGHENDEN


  Time     Wind        Temp  DP   Baro     Rain since   Rain past  Vis(m), Cloud(base in m), Weather
  local        km/h                         9am  last   hr   10m    
Thu 09:00    E 11/ 15  14.3 -2.1  1020.8    0.0   0.0   0.0   0.0   10000 
Thu 09:30    E 15/ 19  16.0 -1.5  1020.7    0.0   0.0   0.0   0.0   10000 
Thu 10:00    E 13/ 19  18.4  0.1  1020.5    0.0   0.0   0.0   0.0   10000 
Thu 10:30    E 13/ 17  19.9  0.4  1020.1    0.0   0.0   0.0   0.0   10000 
Thu 11:00  ENE 13/ 20  21.7 -0.3  1019.9    0.0   0.0   0.0   0.0   10000 
Thu 11:30    E 13/ 19  22.9 -0.6  1019.6    0.0   0.0   0.0   0.0   10000 
Thu 12:00  ENE  9/ 17  23.7 -1.3  1019.3    0.0   0.0   0.0   0.0   10000 
Thu 12:30    E  7/ 15  24.8 -2.7  1018.8    0.0   0.0   0.0   0.0   10000 
Thu 13:00    E 13/ 22  25.5 -3.9  1018.4    0.0   0.0   0.0   0.0   10000 
Thu 13:30    E 11/ 17  25.3 -4.1  1017.8    0.0   0.0   0.0   0.0   10000 
Thu 14:00  SSE 17/ 20  26.1 -3.5  1017.6    0.0   0.0   0.0   0.0   10000